Aviation Digital Data Service (ADDS)

Output produced by METARs form (0957 UTC 19 January 2019)
found at http://www.aviationweather.gov/metar/data/
 
LHSM 190915Z 34003KT CAVOK M01/M03 Q1022 NOSIG
TAF LHSM 190815Z 1909/1918 35005KT CAVOK 
     BECMG 1909/1912 06005KT 
     PROB40 
     TEMPO 1909/1918 -SN SCT040 BKN080
       
LHDC 190915Z 04009KT CAVOK M01/M05 Q1022 NOSIG
TAF LHDC 190815Z 1909/1918 05007KT CAVOK
       
LHBP 190930Z 08007KT CAVOK 00/M01 Q1022 NOSIG
TAF LHBP 190515Z 1906/2006 35005KT CAVOK 
     BECMG 1906/1908 08008KT 
     TEMPO 1906/1908 SCT040 
     TEMPO 1920/1924 4000 -SN SCT025 BKN050
       
LHKE 190945Z 07010KT CAVOK 00/M03 Q1021 NOSIG RMK BLU
TAF LHKE 190815Z 1909/1918 06006KT CAVOK
       
LHPA 190915Z 00000KT CAVOK M03/M05 Q1022 NOSIG RMK BLU
TAF LHPA 190515Z 1906/2006 08003KT CAVOK 
     TEMPO 1908/1913 9999 SCT025 BKN080 
     BECMG 1918/1921 9999 BKN040 BKN080 
     PROB40 
     TEMPO 2000/2006 5000 -SN BR BKN010 OVC040
       
LHSN 190945Z 07008KT CAVOK 00/M03 Q1021 NOSIG RMK BLU
TAF LHSN 190815Z 1909/1918 05006KT CAVOK